KCCY/CCY METAR and TAF weather

Enter ICAO airport designator
Station Type Date Time Source
KCCY METAR 2022/01/19 20:55 UTC NOAA

KCCY 192055Z AUTO 33018G30KT 10SM BKN013 M16/M21 A3037 RMK AO2


Station Type Date Time Source
KCCY Decoded METAR 2022/01/19 20:55 UTC NOAA

Charles City, IA, United States (KCCY) 43-04N 092-37W
Jan 19, 2022 - 03:55 PM EST / 2022.01.19 2055 UTC
Wind: from the NNW (330 degrees) at 21 MPH (18 KT) gusting to 35 MPH (30 KT):0
Visibility: 10 mile(s):0
Sky conditions: mostly cloudy
Temperature: 3 F (-16 C)
Windchill: -18 F (-28 C):2
Dew Point: -5 F (-21 C)
Relative Humidity: 65%
Pressure (altimeter): 30.37 in. Hg (1028 hPa)
ob: KCCY 192055Z AUTO 33018G30KT 10SM BKN013 M16/M21 A3037 RMK AO2
cycle: 21

Station Type Date Time Source
KCCY TAF UTC NOAA

Error!

Example: see airport list